sensor_id;sensor_type;location;lat;lon;timestamp;pressure;altitude;pressure_sealevel;temperature;humidity
73941;BME280;62294;48.554;10.202;2023-12-22T00:01:08;95136.25;;;4.85;100.00
73941;BME280;62294;48.554;10.202;2023-12-22T00:03:35;95125.31;;;4.88;100.00
73941;BME280;62294;48.554;10.202;2023-12-22T00:06:02;95111.13;;;4.89;100.00
73941;BME280;62294;48.554;10.202;2023-12-22T00:08:29;95128.75;;;4.88;100.00
73941;BME280;62294;48.554;10.202;2023-12-22T00:10:55;95133.25;;;4.81;100.00
73941;BME280;62294;48.554;10.202;2023-12-22T00:13:21;95139.50;;;4.87;100.00
73941;BME280;62294;48.554;10.202;2023-12-22T00:15:48;95120.25;;;4.80;100.00
73941;BME280;62294;48.554;10.202;2023-12-22T00:18:14;95113.19;;;4.74;100.00
73941;BME280;62294;48.554;10.202;2023-12-22T00:20:41;95122.69;;;4.75;100.00
73941;BME280;62294;48.554;10.202;2023-12-22T00:23:08;95131.81;;;4.72;100.00
73941;BME280;62294;48.554;10.202;2023-12-22T00:25:34;95113.19;;;4.80;100.00
73941;BME280;62294;48.554;10.202;2023-12-22T00:28:01;95103.47;;;4.81;100.00
73941;BME280;62294;48.554;10.202;2023-12-22T00:30:28;95119.88;;;4.83;100.00
73941;BME280;62294;48.554;10.202;2023-12-22T00:32:54;95127.78;;;4.76;100.00
73941;BME280;62294;48.554;10.202;2023-12-22T00:35:21;95148.63;;;4.78;100.00
73941;BME280;62294;48.554;10.202;2023-12-22T00:37:47;95146.78;;;4.91;100.00
73941;BME280;62294;48.554;10.202;2023-12-22T00:40:14;95123.66;;;5.00;100.00
73941;BME280;62294;48.554;10.202;2023-12-22T00:42:41;95127.50;;;5.04;100.00
73941;BME280;62294;48.554;10.202;2023-12-22T00:45:07;95123.44;;;5.08;100.00
73941;BME280;62294;48.554;10.202;2023-12-22T00:47:34;95098.09;;;5.14;100.00
73941;BME280;62294;48.554;10.202;2023-12-22T00:50:02;95097.09;;;5.08;100.00
73941;BME280;62294;48.554;10.202;2023-12-22T00:52:29;95100.34;;;5.10;100.00
73941;BME280;62294;48.554;10.202;2023-12-22T00:54:56;95098.09;;;5.14;100.00
73941;BME280;62294;48.554;10.202;2023-12-22T00:57:23;95098.09;;;5.14;100.00
73941;BME280;62294;48.554;10.202;2023-12-22T00:59:49;95110.22;;;5.21;100.00
73941;BME280;62294;48.554;10.202;2023-12-22T01:02:17;95084.91;;;5.20;100.00
73941;BME280;62294;48.554;10.202;2023-12-22T01:04:44;95074.38;;;5.20;100.00
73941;BME280;62294;48.554;10.202;2023-12-22T01:07:11;95076.75;;;5.28;100.00
73941;BME280;62294;48.554;10.202;2023-12-22T01:09:37;95078.53;;;5.34;100.00
73941;BME280;62294;48.554;10.202;2023-12-22T01:12:04;95084.22;;;5.38;100.00
73941;BME280;62294;48.554;10.202;2023-12-22T01:14:32;95099.63;;;5.34;100.00
73941;BME280;62294;48.554;10.202;2023-12-22T01:16:59;95110.63;;;5.25;100.00
73941;BME280;62294;48.554;10.202;2023-12-22T01:19:26;95112.63;;;5.23;100.00
73941;BME280;62294;48.554;10.202;2023-12-22T01:21:53;95135.19;;;5.12;100.00
73941;BME280;62294;48.554;10.202;2023-12-22T01:24:20;95166.59;;;5.07;100.00
73941;BME280;62294;48.554;10.202;2023-12-22T01:26:46;95191.72;;;3.98;100.00
73941;BME280;62294;48.554;10.202;2023-12-22T01:29:13;95203.28;;;3.50;100.00
73941;BME280;62294;48.554;10.202;2023-12-22T01:31:39;95179.63;;;3.03;100.00
73941;BME280;62294;48.554;10.202;2023-12-22T01:34:06;95188.03;;;2.92;100.00
73941;BME280;62294;48.554;10.202;2023-12-22T01:36:34;95183.47;;;2.72;100.00
73941;BME280;62294;48.554;10.202;2023-12-22T01:39:01;95202.19;;;2.69;100.00
73941;BME280;62294;48.554;10.202;2023-12-22T01:41:27;95195.25;;;2.55;100.00
73941;BME280;62294;48.554;10.202;2023-12-22T01:43:53;95183.72;;;2.50;100.00
73941;BME280;62294;48.554;10.202;2023-12-22T01:46:21;95171.53;;;2.42;100.00
73941;BME280;62294;48.554;10.202;2023-12-22T01:48:47;95157.56;;;2.35;100.00
73941;BME280;62294;48.554;10.202;2023-12-22T01:51:14;95166.81;;;2.31;100.00
73941;BME280;62294;48.554;10.202;2023-12-22T01:53:41;95167.84;;;2.30;100.00
73941;BME280;62294;48.554;10.202;2023-12-22T01:56:07;95174.16;;;2.42;100.00
73941;BME280;62294;48.554;10.202;2023-12-22T01:58:36;95169.19;;;2.54;100.00
73941;BME280;62294;48.554;10.202;2023-12-22T02:01:04;95159.03;;;2.72;100.00
73941;BME280;62294;48.554;10.202;2023-12-22T02:03:31;95136.31;;;2.85;100.00
73941;BME280;62294;48.554;10.202;2023-12-22T02:05:57;95138.00;;;3.00;100.00
73941;BME280;62294;48.554;10.202;2023-12-22T02:08:25;95135.84;;;3.10;100.00
73941;BME280;62294;48.554;10.202;2023-12-22T02:10:53;95140.75;;;3.26;100.00
73941;BME280;62294;48.554;10.202;2023-12-22T02:13:20;95134.13;;;3.36;100.00
73941;BME280;62294;48.554;10.202;2023-12-22T02:15:47;95128.53;;;3.52;100.00
73941;BME280;62294;48.554;10.202;2023-12-22T02:18:22;95097.81;;;3.59;100.00
73941;BME280;62294;48.554;10.202;2023-12-22T02:20:52;95083.09;;;3.78;100.00
73941;BME280;62294;48.554;10.202;2023-12-22T02:23:19;95064.91;;;3.96;100.00
73941;BME280;62294;48.554;10.202;2023-12-22T02:25:46;95063.50;;;4.00;100.00
73941;BME280;62294;48.554;10.202;2023-12-22T02:28:16;95078.84;;;4.16;100.00
73941;BME280;62294;48.554;10.202;2023-12-22T02:30:57;95072.00;;;4.28;100.00
73941;BME280;62294;48.554;10.202;2023-12-22T02:33:28;95048.69;;;4.39;100.00
73941;BME280;62294;48.554;10.202;2023-12-22T02:36:00;95054.53;;;4.54;100.00
73941;BME280;62294;48.554;10.202;2023-12-22T02:38:28;95050.06;;;4.61;100.00
73941;BME280;62294;48.554;10.202;2023-12-22T02:40:56;95046.81;;;4.72;100.00
73941;BME280;62294;48.554;10.202;2023-12-22T02:43:23;95063.97;;;4.81;100.00
73941;BME280;62294;48.554;10.202;2023-12-22T02:45:50;95069.59;;;4.91;100.00
73941;BME280;62294;48.554;10.202;2023-12-22T02:48:17;95077.50;;;4.91;100.00
73941;BME280;62294;48.554;10.202;2023-12-22T02:50:44;95090.84;;;4.96;100.00
73941;BME280;62294;48.554;10.202;2023-12-22T02:53:11;95095.72;;;4.99;100.00
73941;BME280;62294;48.554;10.202;2023-12-22T02:55:37;95088.81;;;4.98;100.00
73941;BME280;62294;48.554;10.202;2023-12-22T02:58:04;95135.41;;;4.97;100.00
73941;BME280;62294;48.554;10.202;2023-12-22T03:00:31;95144.97;;;4.92;100.00
73941;BME280;62294;48.554;10.202;2023-12-22T03:02:57;95180.38;;;4.96;100.00
73941;BME280;62294;48.554;10.202;2023-12-22T03:05:24;95214.63;;;4.96;100.00
73941;BME280;62294;48.554;10.202;2023-12-22T03:07:51;95246.41;;;5.01;100.00
73941;BME280;62294;48.554;10.202;2023-12-22T03:10:18;95290.97;;;5.09;100.00
73941;BME280;62294;48.554;10.202;2023-12-22T03:12:44;95302.75;;;5.13;100.00
73941;BME280;62294;48.554;10.202;2023-12-22T03:15:11;95318.13;;;5.16;100.00
73941;BME280;62294;48.554;10.202;2023-12-22T03:17:38;95332.53;;;5.20;100.00
73941;BME280;62294;48.554;10.202;2023-12-22T03:20:04;95365.53;;;5.16;100.00
73941;BME280;62294;48.554;10.202;2023-12-22T03:22:31;95367.56;;;5.14;100.00
73941;BME280;62294;48.554;10.202;2023-12-22T03:24:58;95375.47;;;5.21;100.00
73941;BME280;62294;48.554;10.202;2023-12-22T03:27:25;95421.50;;;5.31;100.00
73941;BME280;62294;48.554;10.202;2023-12-22T03:29:51;95414.97;;;5.27;100.00
73941;BME280;62294;48.554;10.202;2023-12-22T03:32:18;95414.59;;;5.24;100.00
73941;BME280;62294;48.554;10.202;2023-12-22T03:34:45;95421.88;;;5.28;100.00
73941;BME280;62294;48.554;10.202;2023-12-22T03:37:12;95422.28;;;5.25;100.00
73941;BME280;62294;48.554;10.202;2023-12-22T03:39:38;95418.63;;;5.26;100.00
73941;BME280;62294;48.554;10.202;2023-12-22T03:42:05;95408.31;;;5.25;100.00
73941;BME280;62294;48.554;10.202;2023-12-22T03:44:32;95435.66;;;5.24;100.00
73941;BME280;62294;48.554;10.202;2023-12-22T03:46:58;95412.56;;;5.32;100.00
73941;BME280;62294;48.554;10.202;2023-12-22T03:49:25;95436.69;;;5.42;100.00
73941;BME280;62294;48.554;10.202;2023-12-22T03:51:55;95430.00;;;5.40;100.00
73941;BME280;62294;48.554;10.202;2023-12-22T03:54:22;95453.13;;;5.51;100.00
73941;BME280;62294;48.554;10.202;2023-12-22T03:56:49;95460.41;;;5.55;100.00
73941;BME280;62294;48.554;10.202;2023-12-22T03:59:15;95479.47;;;5.57;100.00
73941;BME280;62294;48.554;10.202;2023-12-22T04:01:50;95484.34;;;5.60;100.00
73941;BME280;62294;48.554;10.202;2023-12-22T04:04:19;95492.88;;;5.56;100.00
73941;BME280;62294;48.554;10.202;2023-12-22T04:06:46;95510.31;;;5.63;100.00
73941;BME280;62294;48.554;10.202;2023-12-22T04:09:12;95520.03;;;5.69;100.00
73941;BME280;62294;48.554;10.202;2023-12-22T04:11:39;95513.34;;;5.73;100.00
73941;BME280;62294;48.554;10.202;2023-12-22T04:14:06;95550.47;;;5.79;100.00
73941;BME280;62294;48.554;10.202;2023-12-22T04:16:33;95559.03;;;5.87;100.00
73941;BME280;62294;48.554;10.202;2023-12-22T04:18:59;95540.16;;;5.77;100.00
73941;BME280;62294;48.554;10.202;2023-12-22T04:21:26;95548.44;;;5.81;100.00
73941;BME280;62294;48.554;10.202;2023-12-22T04:23:53;95555.34;;;5.82;100.00
73941;BME280;62294;48.554;10.202;2023-12-22T04:26:19;95562.25;;;5.83;100.00
73941;BME280;62294;48.554;10.202;2023-12-22T04:28:46;95569.09;;;5.70;100.00
73941;BME280;62294;48.554;10.202;2023-12-22T04:31:12;95552.91;;;5.67;100.00
73941;BME280;62294;48.554;10.202;2023-12-22T04:33:39;95571.13;;;5.62;100.00
73941;BME280;62294;48.554;10.202;2023-12-22T04:36:06;95584.53;;;5.60;100.00
73941;BME280;62294;48.554;10.202;2023-12-22T04:38:32;95599.13;;;5.56;100.00
73941;BME280;62294;48.554;10.202;2023-12-22T04:40:59;95594.22;;;5.53;100.00
73941;BME280;62294;48.554;10.202;2023-12-22T04:43:26;95599.88;;;5.44;100.00
73941;BME280;62294;48.554;10.202;2023-12-22T04:45:52;95566.19;;;5.33;100.00
73941;BME280;62294;48.554;10.202;2023-12-22T04:48:19;95568.97;;;5.18;100.00
73941;BME280;62294;48.554;10.202;2023-12-22T04:50:45;95529.19;;;4.93;100.00
73941;BME280;62294;48.554;10.202;2023-12-22T04:53:12;95480.03;;;4.60;100.00
73941;BME280;62294;48.554;10.202;2023-12-22T04:55:39;95419.72;;;4.58;100.00
73941;BME280;62294;48.554;10.202;2023-12-22T04:58:06;95420.81;;;4.36;100.00
73941;BME280;62294;48.554;10.202;2023-12-22T05:00:32;95401.09;;;4.12;100.00
73941;BME280;62294;48.554;10.202;2023-12-22T05:02:59;95380.97;;;3.92;100.00
73941;BME280;62294;48.554;10.202;2023-12-22T05:05:25;95362.53;;;3.85;100.00
73941;BME280;62294;48.554;10.202;2023-12-22T05:07:52;95328.72;;;3.76;100.00
73941;BME280;62294;48.554;10.202;2023-12-22T05:10:19;95325.03;;;3.70;100.00
73941;BME280;62294;48.554;10.202;2023-12-22T05:12:45;95274.09;;;3.65;100.00
73941;BME280;62294;48.554;10.202;2023-12-22T05:15:12;95265.59;;;3.63;100.00
73941;BME280;62294;48.554;10.202;2023-12-22T05:17:38;95268.28;;;3.82;100.00
73941;BME280;62294;48.554;10.202;2023-12-22T05:20:07;95257.38;;;3.79;100.00
73941;BME280;62294;48.554;10.202;2023-12-22T05:22:34;95251.09;;;3.80;100.00
73941;BME280;62294;48.554;10.202;2023-12-22T05:25:02;95252.19;;;4.05;100.00
73941;BME280;62294;48.554;10.202;2023-12-22T05:27:29;95249.78;;;4.16;100.00
73941;BME280;62294;48.554;10.202;2023-12-22T05:29:56;95258.91;;;4.33;100.00
73941;BME280;62294;48.554;10.202;2023-12-22T05:32:27;95267.63;;;4.41;100.00
73941;BME280;62294;48.554;10.202;2023-12-22T05:34:54;95278.75;;;4.36;100.00
73941;BME280;62294;48.554;10.202;2023-12-22T05:37:21;95282.44;;;4.42;100.00
73941;BME280;62294;48.554;10.202;2023-12-22T05:39:47;95309.94;;;4.46;100.00
73941;BME280;62294;48.554;10.202;2023-12-22T05:42:14;95304.69;;;4.46;100.00
73941;BME280;62294;48.554;10.202;2023-12-22T05:44:41;95313.19;;;4.48;100.00
73941;BME280;62294;48.554;10.202;2023-12-22T05:47:08;95297.00;;;4.51;100.00
73941;BME280;62294;48.554;10.202;2023-12-22T05:49:34;95312.00;;;4.57;100.00
73941;BME280;62294;48.554;10.202;2023-12-22T05:52:01;95323.34;;;4.64;100.00
73941;BME280;62294;48.554;10.202;2023-12-22T05:54:28;95329.81;;;4.68;100.00
73941;BME280;62294;48.554;10.202;2023-12-22T05:56:54;95331.06;;;4.78;100.00
73941;BME280;62294;48.554;10.202;2023-12-22T05:59:24;95358.81;;;4.81;100.00
73941;BME280;62294;48.554;10.202;2023-12-22T06:01:54;95352.13;;;4.85;100.00
73941;BME280;62294;48.554;10.202;2023-12-22T06:04:20;95398.34;;;4.94;100.00
73941;BME280;62294;48.554;10.202;2023-12-22T06:06:47;95382.53;;;4.94;100.00
73941;BME280;62294;48.554;10.202;2023-12-22T06:09:14;95413.75;;;4.97;100.00
73941;BME280;62294;48.554;10.202;2023-12-22T06:11:40;95424.69;;;5.00;100.00
73941;BME280;62294;48.554;10.202;2023-12-22T06:14:07;95434.00;;;4.96;100.00
73941;BME280;62294;48.554;10.202;2023-12-22T06:16:33;95436.19;;;4.86;100.00
73941;BME280;62294;48.554;10.202;2023-12-22T06:19:00;95442.63;;;4.77;100.00
73941;BME280;62294;48.554;10.202;2023-12-22T06:21:26;95454.97;;;4.70;100.00
73941;BME280;62294;48.554;10.202;2023-12-22T06:23:53;95444.59;;;4.56;100.00
73941;BME280;62294;48.554;10.202;2023-12-22T06:26:20;95430.97;;;4.39;100.00
73941;BME280;62294;48.554;10.202;2023-12-22T06:28:47;95395.31;;;4.37;100.00
73941;BME280;62294;48.554;10.202;2023-12-22T06:31:20;95379.13;;;4.26;100.00
73941;BME280;62294;48.554;10.202;2023-12-22T06:33:49;95337.41;;;4.23;100.00
73941;BME280;62294;48.554;10.202;2023-12-22T06:36:23;95299.38;;;4.26;100.00
73941;BME280;62294;48.554;10.202;2023-12-22T06:38:51;95309.50;;;4.29;100.00
73941;BME280;62294;48.554;10.202;2023-12-22T06:41:22;95306.31;;;4.40;100.00
73941;BME280;62294;48.554;10.202;2023-12-22T06:43:53;95301.06;;;4.47;100.00
73941;BME280;62294;48.554;10.202;2023-12-22T06:46:22;95314.03;;;4.55;100.00
73941;BME280;62294;48.554;10.202;2023-12-22T06:48:49;95340.94;;;4.57;100.00
73941;BME280;62294;48.554;10.202;2023-12-22T06:51:34;95364.69;;;4.70;100.00
73941;BME280;62294;48.554;10.202;2023-12-22T06:54:04;95388.56;;;4.75;100.00
73941;BME280;62294;48.554;10.202;2023-12-22T06:56:38;95402.97;;;4.85;100.00
73941;BME280;62294;48.554;10.202;2023-12-22T06:59:05;95411.69;;;4.86;100.00
73941;BME280;62294;48.554;10.202;2023-12-22T07:01:34;95446.13;;;4.91;100.00
73941;BME280;62294;48.554;10.202;2023-12-22T07:04:02;95463.38;;;5.07;100.00
73941;BME280;62294;48.554;10.202;2023-12-22T07:06:30;95490.34;;;5.09;100.00
73941;BME280;62294;48.554;10.202;2023-12-22T07:09:40;95522.97;;;5.14;100.00
73941;BME280;62294;48.554;10.202;2023-12-22T07:12:03;95572.88;;;4.81;100.00
73941;BME280;62294;48.554;10.202;2023-12-22T07:14:30;95535.31;;;4.60;100.00
73941;BME280;62294;48.554;10.202;2023-12-22T07:16:56;95514.41;;;4.52;100.00
73941;BME280;62294;48.554;10.202;2023-12-22T07:19:25;95476.94;;;4.50;100.00
73941;BME280;62294;48.554;10.202;2023-12-22T07:21:51;95440.31;;;4.55;100.00
73941;BME280;62294;48.554;10.202;2023-12-22T07:24:17;95438.16;;;4.65;100.00
73941;BME280;62294;48.554;10.202;2023-12-22T07:26:45;95446.88;;;4.72;100.00
73941;BME280;62294;48.554;10.202;2023-12-22T07:29:12;95447.31;;;4.82;100.00
73941;BME280;62294;48.554;10.202;2023-12-22T07:31:39;95459.88;;;4.86;100.00
73941;BME280;62294;48.554;10.202;2023-12-22T07:34:06;95476.53;;;5.00;100.00
73941;BME280;62294;48.554;10.202;2023-12-22T07:36:35;95472.50;;;5.04;100.00
73941;BME280;62294;48.554;10.202;2023-12-22T07:39:11;95500.69;;;5.10;100.00
73941;BME280;62294;48.554;10.202;2023-12-22T07:41:38;95521.56;;;5.18;100.00
73941;BME280;62294;48.554;10.202;2023-12-22T07:44:04;95537.19;;;5.26;100.00
73941;BME280;62294;48.554;10.202;2023-12-22T07:46:33;95541.50;;;5.34;100.00
73941;BME280;62294;48.554;10.202;2023-12-22T07:49:00;95556.06;;;5.36;100.00
73941;BME280;62294;48.554;10.202;2023-12-22T07:51:28;95569.88;;;5.38;100.00
73941;BME280;62294;48.554;10.202;2023-12-22T07:53:54;95614.25;;;5.41;100.00
73941;BME280;62294;48.554;10.202;2023-12-22T07:56:21;95615.44;;;5.32;100.00
73941;BME280;62294;48.554;10.202;2023-12-22T07:58:48;95610.97;;;5.26;100.00
73941;BME280;62294;48.554;10.202;2023-12-22T08:01:14;95604.53;;;5.35;100.00
73941;BME280;62294;48.554;10.202;2023-12-22T08:03:42;95626.59;;;5.34;100.00
73941;BME280;62294;48.554;10.202;2023-12-22T08:06:08;95642.81;;;5.31;100.00
73941;BME280;62294;48.554;10.202;2023-12-22T08:08:37;95624.38;;;5.31;100.00
73941;BME280;62294;48.554;10.202;2023-12-22T08:11:04;95652.94;;;5.34;100.00
73941;BME280;62294;48.554;10.202;2023-12-22T08:13:30;95645.25;;;5.39;100.00
73941;BME280;62294;48.554;10.202;2023-12-22T08:15:57;95650.75;;;5.38;100.00
73941;BME280;62294;48.554;10.202;2023-12-22T08:18:24;95634.34;;;5.42;100.00
73941;BME280;62294;48.554;10.202;2023-12-22T08:20:50;95648.53;;;5.48;100.00
73941;BME280;62294;48.554;10.202;2023-12-22T08:23:17;95636.78;;;5.50;100.00
73941;BME280;62294;48.554;10.202;2023-12-22T08:25:45;95649.59;;;5.53;100.00
73941;BME280;62294;48.554;10.202;2023-12-22T08:28:12;95661.56;;;5.56;100.00
73941;BME280;62294;48.554;10.202;2023-12-22T08:30:39;95663.22;;;5.63;100.00
73941;BME280;62294;48.554;10.202;2023-12-22T08:33:06;95684.91;;;5.65;100.00
73941;BME280;62294;48.554;10.202;2023-12-22T08:35:33;95683.06;;;5.66;100.00
73941;BME280;62294;48.554;10.202;2023-12-22T08:37:59;95697.31;;;5.71;100.00
73941;BME280;62294;48.554;10.202;2023-12-22T08:40:26;95681.09;;;5.74;100.00
73941;BME280;62294;48.554;10.202;2023-12-22T08:42:54;95687.97;;;5.75;100.00
73941;BME280;62294;48.554;10.202;2023-12-22T08:45:21;95699.56;;;5.74;100.00
73941;BME280;62294;48.554;10.202;2023-12-22T08:47:47;95698.31;;;5.70;100.00
73941;BME280;62294;48.554;10.202;2023-12-22T08:50:15;95715.97;;;5.70;100.00
73941;BME280;62294;48.554;10.202;2023-12-22T08:52:41;95711.66;;;5.62;100.00
73941;BME280;62294;48.554;10.202;2023-12-22T08:55:08;95719.50;;;5.43;100.00
73941;BME280;62294;48.554;10.202;2023-12-22T08:57:34;95691.00;;;5.25;100.00
73941;BME280;62294;48.554;10.202;2023-12-22T09:00:01;95676.38;;;5.16;100.00
73941;BME280;62294;48.554;10.202;2023-12-22T09:02:28;95631.59;;;4.82;100.00
73941;BME280;62294;48.554;10.202;2023-12-22T09:04:54;95609.97;;;4.59;100.00
73941;BME280;62294;48.554;10.202;2023-12-22T09:07:21;95582.97;;;4.44;100.00
73941;BME280;62294;48.554;10.202;2023-12-22T09:09:49;95547.16;;;4.43;100.00
73941;BME280;62294;48.554;10.202;2023-12-22T09:12:15;95463.50;;;4.31;100.00
73941;BME280;62294;48.554;10.202;2023-12-22T09:14:42;95479.50;;;4.37;100.00
73941;BME280;62294;48.554;10.202;2023-12-22T09:17:09;95475.03;;;4.30;100.00
73941;BME280;62294;48.554;10.202;2023-12-22T09:19:36;95478.31;;;4.39;100.00
73941;BME280;62294;48.554;10.202;2023-12-22T09:22:05;95492.66;;;4.37;100.00
73941;BME280;62294;48.554;10.202;2023-12-22T09:24:31;95486.19;;;4.32;100.00
73941;BME280;62294;48.554;10.202;2023-12-22T09:26:58;95463.53;;;4.38;100.00
73941;BME280;62294;48.554;10.202;2023-12-22T09:29:30;95460.16;;;4.51;100.00
73941;BME280;62294;48.554;10.202;2023-12-22T09:31:57;95458.56;;;4.56;100.00
73941;BME280;62294;48.554;10.202;2023-12-22T09:34:26;95469.75;;;4.65;100.00
73941;BME280;62294;48.554;10.202;2023-12-22T09:36:54;95476.84;;;4.71;100.00
73941;BME280;62294;48.554;10.202;2023-12-22T09:39:21;95474.25;;;4.84;100.00
73941;BME280;62294;48.554;10.202;2023-12-22T09:41:49;95471.22;;;4.87;100.00
73941;BME280;62294;48.554;10.202;2023-12-22T09:44:20;95472.66;;;4.89;100.00
73941;BME280;62294;48.554;10.202;2023-12-22T09:46:48;95485.88;;;5.09;100.00
73941;BME280;62294;48.554;10.202;2023-12-22T09:49:18;95482.03;;;5.12;100.00
73941;BME280;62294;48.554;10.202;2023-12-22T09:51:47;95465.25;;;5.19;100.00
73941;BME280;62294;48.554;10.202;2023-12-22T09:54:16;95448.44;;;5.33;100.00
73941;BME280;62294;48.554;10.202;2023-12-22T09:56:43;95453.28;;;5.36;100.00
73941;BME280;62294;48.554;10.202;2023-12-22T09:59:12;95450.47;;;5.38;100.00
73941;BME280;62294;48.554;10.202;2023-12-22T10:01:43;95447.63;;;5.46;100.00
73941;BME280;62294;48.554;10.202;2023-12-22T10:04:13;95458.59;;;5.49;100.00
73941;BME280;62294;48.554;10.202;2023-12-22T10:06:41;95460.81;;;5.52;100.00
73941;BME280;62294;48.554;10.202;2023-12-22T10:09:08;95462.03;;;5.69;100.00
73941;BME280;62294;48.554;10.202;2023-12-22T10:11:39;95472.97;;;5.80;100.00
73941;BME280;62294;48.554;10.202;2023-12-22T10:14:06;95507.06;;;5.81;100.00
73941;BME280;62294;48.554;10.202;2023-12-22T10:16:34;95535.03;;;5.75;100.00
73941;BME280;62294;48.554;10.202;2023-12-22T10:19:03;95546.81;;;5.80;100.00
73941;BME280;62294;48.554;10.202;2023-12-22T10:21:30;95555.75;;;5.79;100.00
73941;BME280;62294;48.554;10.202;2023-12-22T10:24:00;95574.38;;;5.70;100.00
73941;BME280;62294;48.554;10.202;2023-12-22T10:26:28;95567.50;;;5.69;100.00
73941;BME280;62294;48.554;10.202;2023-12-22T10:28:54;95552.50;;;5.77;100.00
73941;BME280;62294;48.554;10.202;2023-12-22T10:31:21;95557.56;;;5.78;100.00
73941;BME280;62294;48.554;10.202;2023-12-22T10:33:47;95586.34;;;5.73;100.00
73941;BME280;62294;48.554;10.202;2023-12-22T10:36:14;95578.84;;;5.63;100.00
73941;BME280;62294;48.554;10.202;2023-12-22T10:38:41;95561.81;;;5.66;100.00
73941;BME280;62294;48.554;10.202;2023-12-22T10:41:09;95528.56;;;5.58;100.00
73941;BME280;62294;48.554;10.202;2023-12-22T10:43:38;95545.59;;;5.62;100.00
73941;BME280;62294;48.554;10.202;2023-12-22T10:46:05;95533.63;;;5.66;100.00
73941;BME280;62294;48.554;10.202;2023-12-22T10:48:32;95539.31;;;5.63;100.00
73941;BME280;62294;48.554;10.202;2023-12-22T10:51:00;95514.38;;;5.72;100.00
73941;BME280;62294;48.554;10.202;2023-12-22T10:53:26;95517.59;;;5.61;100.00
73941;BME280;62294;48.554;10.202;2023-12-22T10:55:53;95509.50;;;5.69;100.00
73941;BME280;62294;48.554;10.202;2023-12-22T10:58:19;95503.22;;;5.77;100.00
73941;BME280;62294;48.554;10.202;2023-12-22T11:00:47;95491.66;;;5.65;100.00
73941;BME280;62294;48.554;10.202;2023-12-22T11:03:17;95481.50;;;5.62;100.00
73941;BME280;62294;48.554;10.202;2023-12-22T11:05:46;95466.72;;;5.61;100.00
73941;BME280;62294;48.554;10.202;2023-12-22T11:08:14;95445.00;;;5.52;100.00
73941;BME280;62294;48.554;10.202;2023-12-22T11:10:42;95443.38;;;5.58;100.00
73941;BME280;62294;48.554;10.202;2023-12-22T11:13:12;95425.97;;;5.63;100.00
73941;BME280;62294;48.554;10.202;2023-12-22T11:15:40;95443.81;;;5.68;100.00
73941;BME280;62294;48.554;10.202;2023-12-22T11:18:08;95448.25;;;5.67;100.00
73941;BME280;62294;48.554;10.202;2023-12-22T11:20:35;95448.25;;;5.81;100.00
73941;BME280;62294;48.554;10.202;2023-12-22T11:23:04;95454.75;;;5.85;100.00
73941;BME280;62294;48.554;10.202;2023-12-22T11:25:32;95470.78;;;5.77;100.00
73941;BME280;62294;48.554;10.202;2023-12-22T11:28:00;95473.41;;;5.83;100.00
73941;BME280;62294;48.554;10.202;2023-12-22T11:30:28;95464.50;;;5.84;100.00
73941;BME280;62294;48.554;10.202;2023-12-22T11:32:56;95458.81;;;5.87;100.00
73941;BME280;62294;48.554;10.202;2023-12-22T11:35:27;95442.97;;;5.81;100.00
73941;BME280;62294;48.554;10.202;2023-12-22T11:38:00;95448.66;;;5.84;100.00
73941;BME280;62294;48.554;10.202;2023-12-22T11:40:27;95446.00;;;5.78;100.00
73941;BME280;62294;48.554;10.202;2023-12-22T11:42:54;95453.53;;;5.81;100.00
73941;BME280;62294;48.554;10.202;2023-12-22T11:45:20;95434.06;;;5.82;100.00
73941;BME280;62294;48.554;10.202;2023-12-22T11:47:49;95426.53;;;5.79;100.00
73941;BME280;62294;48.554;10.202;2023-12-22T11:50:29;95414.41;;;5.91;100.00
73941;BME280;62294;48.554;10.202;2023-12-22T11:52:56;95404.44;;;5.93;100.00
73941;BME280;62294;48.554;10.202;2023-12-22T11:55:58;95410.53;;;5.73;100.00
73941;BME280;62294;48.554;10.202;2023-12-22T12:01:12;95400.38;;;5.84;100.00
73941;BME280;62294;48.554;10.202;2023-12-22T12:08:45;95390.22;;;5.81;100.00
73941;BME280;62294;48.554;10.202;2023-12-22T12:11:11;95382.56;;;5.86;100.00
73941;BME280;62294;48.554;10.202;2023-12-22T12:13:42;95389.41;;;5.80;100.00
73941;BME280;62294;48.554;10.202;2023-12-22T12:16:15;95372.00;;;5.86;100.00
73941;BME280;62294;48.554;10.202;2023-12-22T12:18:45;95371.56;;;5.75;100.00
73941;BME280;62294;48.554;10.202;2023-12-22T12:21:12;95368.34;;;5.87;100.00
73941;BME280;62294;48.554;10.202;2023-12-22T12:23:40;95350.88;;;5.92;100.00
73941;BME280;62294;48.554;10.202;2023-12-22T12:26:08;95365.72;;;5.93;100.00
73941;BME280;62294;48.554;10.202;2023-12-22T12:28:35;95344.81;;;5.85;100.00
73941;BME280;62294;48.554;10.202;2023-12-22T12:31:04;95358.19;;;5.84;100.00
73941;BME280;62294;48.554;10.202;2023-12-22T12:33:32;95370.56;;;5.77;100.00
73941;BME280;62294;48.554;10.202;2023-12-22T12:36:00;95359.44;;;5.74;100.00
73941;BME280;62294;48.554;10.202;2023-12-22T12:41:22;95326.41;;;5.59;100.00
73941;BME280;62294;48.554;10.202;2023-12-22T12:43:52;95311.97;;;5.61;100.00
73941;BME280;62294;48.554;10.202;2023-12-22T12:46:21;95307.94;;;5.46;100.00
73941;BME280;62294;48.554;10.202;2023-12-22T12:48:47;95313.81;;;5.48;100.00
73941;BME280;62294;48.554;10.202;2023-12-22T12:51:14;95302.66;;;5.52;100.00
73941;BME280;62294;48.554;10.202;2023-12-22T12:53:40;95306.34;;;5.51;100.00
73941;BME280;62294;48.554;10.202;2023-12-22T12:56:06;95297.38;;;5.65;100.00
73941;BME280;62294;48.554;10.202;2023-12-22T12:58:33;95288.88;;;5.63;100.00
73941;BME280;62294;48.554;10.202;2023-12-22T13:01:06;95295.41;;;5.54;100.00
73941;BME280;62294;48.554;10.202;2023-12-22T13:03:32;95288.66;;;5.65;100.00